8AH YSWG-YMAY
Flight info
| Callsign | 8AH |
|---|---|
| Flight time | 0h 23m |
| Altitude | 4500 |
| Route | WG DCT AY |
| Aircraft | C208/L-SDFGR/C |
Departure
| Time | 2026-05-04 11:29 |
|---|---|
| Airport | Wagga Wagga Airport (YSWG) |
Arrival
| Time | 2026-05-04 11:53 |
|---|---|
| Airport | Albury Airport (YMAY) |
| Time | Latitude | Longitude | Altitude | Speed | Heading |
|---|---|---|---|---|---|
| 2026-05-04 11:17 | -35.15970 | 147.46076 | 700 ft | 0 kts | 186° |
| 2026-05-04 11:23 | -35.15971 | 147.46076 | 700 ft | 0 kts | 186° |
| 2026-05-04 11:24 | -35.16019 | 147.46204 | 700 ft | 7 kts | 75° |
| 2026-05-04 11:25 | -35.16003 | 147.46259 | 704 ft | 6 kts | 102° |
| 2026-05-04 11:25 | -35.16028 | 147.46286 | 698 ft | 5 kts | 152° |
| 2026-05-04 11:25 | -35.16091 | 147.46327 | 708 ft | 14 kts | 152° |
| 2026-05-04 11:26 | -35.16244 | 147.46425 | 713 ft | 8 kts | 152° |
| 2026-05-04 11:27 | -35.16411 | 147.46532 | 721 ft | 7 kts | 152° |
| 2026-05-04 11:28 | -35.16452 | 147.46567 | 721 ft | 7 kts | 113° |
| 2026-05-04 11:28 | -35.16439 | 147.46633 | 719 ft | 12 kts | 61° |
| 2026-05-04 11:28 | -35.16309 | 147.46924 | 717 ft | 74 kts | 62° |
| 2026-05-04 11:28 | -35.15993 | 147.47656 | 838 ft | 114 kts | 60° |
| 2026-05-04 11:29 | -35.15610 | 147.48563 | 1213 ft | 125 kts | 62° |
| 2026-05-04 11:29 | -35.15280 | 147.49563 | 1629 ft | 133 kts | 77° |
| 2026-05-04 11:29 | -35.15496 | 147.50713 | 1866 ft | 152 kts | 124° |
| 2026-05-04 11:29 | -35.16347 | 147.51423 | 2261 ft | 146 kts | 176° |
| 2026-05-04 11:31 | -35.20307 | 147.45395 | 4496 ft | 138 kts | 244° |
| 2026-05-04 11:33 | -35.25483 | 147.38942 | 4500 ft | 168 kts | 224° |
| 2026-05-04 11:33 | -35.26611 | 147.38438 | 4499 ft | 177 kts | 199° |
| 2026-05-04 11:33 | -35.27814 | 147.38115 | 4502 ft | 177 kts | 199° |
| 2026-05-04 11:34 | -35.29018 | 147.37791 | 4500 ft | 177 kts | 199° |
| 2026-05-04 11:34 | -35.30221 | 147.37465 | 4503 ft | 176 kts | 199° |
| 2026-05-04 11:34 | -35.31420 | 147.37142 | 4499 ft | 177 kts | 199° |
| 2026-05-04 11:34 | -35.32622 | 147.36812 | 4498 ft | 176 kts | 200° |
| 2026-05-04 11:35 | -35.33810 | 147.36444 | 4505 ft | 176 kts | 201° |
| 2026-05-04 11:35 | -35.35002 | 147.36073 | 4505 ft | 177 kts | 201° |
| 2026-05-04 11:35 | -35.36193 | 147.35698 | 4505 ft | 177 kts | 201° |
| 2026-05-04 11:35 | -35.37388 | 147.35320 | 4505 ft | 178 kts | 201° |
| 2026-05-04 11:36 | -35.38590 | 147.34937 | 4501 ft | 179 kts | 201° |
| 2026-05-04 11:36 | -35.39793 | 147.34549 | 4500 ft | 179 kts | 201° |
| 2026-05-04 11:36 | -35.41005 | 147.34162 | 4503 ft | 180 kts | 201° |
| 2026-05-04 11:36 | -35.42210 | 147.33777 | 4502 ft | 179 kts | 201° |
| 2026-05-04 11:37 | -35.43382 | 147.33364 | 4495 ft | 176 kts | 206° |
| 2026-05-04 11:37 | -35.44520 | 147.32803 | 4499 ft | 176 kts | 209° |
| 2026-05-04 11:37 | -35.45648 | 147.32231 | 4498 ft | 175 kts | 209° |
| 2026-05-04 11:37 | -35.46776 | 147.31657 | 4499 ft | 176 kts | 209° |
| 2026-05-04 11:38 | -35.47910 | 147.31081 | 4502 ft | 176 kts | 209° |
| 2026-05-04 11:38 | -35.49044 | 147.30506 | 4499 ft | 176 kts | 208° |
| 2026-05-04 11:38 | -35.50178 | 147.29926 | 4499 ft | 176 kts | 209° |
| 2026-05-04 11:38 | -35.51307 | 147.29350 | 4495 ft | 175 kts | 209° |
| 2026-05-04 11:39 | -35.52428 | 147.28764 | 4492 ft | 173 kts | 214° |
| 2026-05-04 11:39 | -35.53304 | 147.27820 | 4486 ft | 169 kts | 226° |
| 2026-05-04 11:40 | -35.59907 | 147.24222 | 4487 ft | 174 kts | 213° |
| 2026-05-04 11:41 | -35.60999 | 147.23567 | 4485 ft | 174 kts | 213° |
| 2026-05-04 11:41 | -35.62088 | 147.22913 | 4488 ft | 174 kts | 213° |
| 2026-05-04 11:41 | -35.63179 | 147.22255 | 4488 ft | 175 kts | 213° |
| 2026-05-04 11:41 | -35.64276 | 147.21595 | 4488 ft | 175 kts | 213° |
| 2026-05-04 11:42 | -35.65371 | 147.20935 | 4490 ft | 175 kts | 213° |
| 2026-05-04 11:42 | -35.66470 | 147.20273 | 4488 ft | 176 kts | 213° |
| 2026-05-04 11:42 | -35.67561 | 147.19615 | 4489 ft | 177 kts | 213° |
| 2026-05-04 11:42 | -35.68662 | 147.18950 | 4485 ft | 176 kts | 213° |
| 2026-05-04 11:43 | -35.69762 | 147.18288 | 4493 ft | 176 kts | 213° |
| 2026-05-04 11:43 | -35.70863 | 147.17624 | 4489 ft | 176 kts | 213° |
| 2026-05-04 11:43 | -35.71963 | 147.16960 | 4484 ft | 176 kts | 213° |
| 2026-05-04 11:43 | -35.73065 | 147.16294 | 4488 ft | 177 kts | 213° |
| 2026-05-04 11:44 | -35.74171 | 147.15626 | 4488 ft | 177 kts | 213° |
| 2026-05-04 11:44 | -35.75283 | 147.14955 | 4490 ft | 179 kts | 213° |
| 2026-05-04 11:44 | -35.76399 | 147.14281 | 4490 ft | 179 kts | 213° |
| 2026-05-04 11:44 | -35.77516 | 147.13606 | 4489 ft | 179 kts | 213° |
| 2026-05-04 11:45 | -35.78633 | 147.12931 | 4490 ft | 179 kts | 213° |
| 2026-05-04 11:45 | -35.79739 | 147.12261 | 4490 ft | 179 kts | 213° |
| 2026-05-04 11:45 | -35.80856 | 147.11586 | 4489 ft | 179 kts | 213° |
| 2026-05-04 11:45 | -35.81976 | 147.10908 | 4489 ft | 179 kts | 213° |
| 2026-05-04 11:46 | -35.83095 | 147.10230 | 4487 ft | 179 kts | 214° |
| 2026-05-04 11:46 | -35.84215 | 147.09551 | 4489 ft | 179 kts | 213° |
| 2026-05-04 11:46 | -35.85323 | 147.08878 | 4494 ft | 179 kts | 213° |
| 2026-05-04 11:46 | -35.86442 | 147.08202 | 4489 ft | 179 kts | 213° |
| 2026-05-04 11:47 | -35.87553 | 147.07527 | 4494 ft | 178 kts | 213° |
| 2026-05-04 11:47 | -35.88664 | 147.06853 | 4493 ft | 177 kts | 213° |
| 2026-05-04 11:47 | -35.89770 | 147.06181 | 4497 ft | 178 kts | 213° |
| 2026-05-04 11:47 | -35.90885 | 147.05504 | 4497 ft | 179 kts | 213° |
| 2026-05-04 11:48 | -35.92006 | 147.04826 | 4499 ft | 180 kts | 213° |
| 2026-05-04 11:48 | -35.93154 | 147.04191 | 4455 ft | 185 kts | 204° |
| 2026-05-04 11:48 | -35.94451 | 147.03957 | 4231 ft | 189 kts | 192° |
| 2026-05-04 11:48 | -35.95704 | 147.03754 | 4199 ft | 175 kts | 197° |
| 2026-05-04 11:49 | -35.96862 | 147.03458 | 4078 ft | 164 kts | 201° |
| 2026-05-04 11:49 | -35.97945 | 147.03108 | 4007 ft | 159 kts | 203° |
| 2026-05-04 11:49 | -35.99015 | 147.02728 | 3925 ft | 163 kts | 204° |
| 2026-05-04 11:49 | -35.99746 | 147.02475 | 3804 ft | 169 kts | 202° |
| 2026-05-04 11:50 | -36.00871 | 147.02237 | 3418 ft | 157 kts | 194° |
| 2026-05-04 11:50 | -36.01935 | 147.02144 | 3012 ft | 149 kts | 194° |
| 2026-05-04 11:50 | -36.02943 | 147.01967 | 2541 ft | 146 kts | 199° |
| 2026-05-04 11:50 | -36.03919 | 147.01682 | 2082 ft | 145 kts | 200° |
| 2026-05-04 11:51 | -36.04877 | 147.01400 | 1662 ft | 136 kts | 200° |
| 2026-05-04 11:51 | -36.05722 | 147.01051 | 1324 ft | 121 kts | 211° |
| 2026-05-04 11:51 | -36.06175 | 147.00335 | 1205 ft | 100 kts | 259° |
| 2026-05-04 11:51 | -36.06236 | 146.99535 | 1025 ft | 90 kts | 265° |
| 2026-05-04 11:52 | -36.06330 | 146.98785 | 876 ft | 86 kts | 264° |
| 2026-05-04 11:52 | -36.06419 | 146.98047 | 744 ft | 88 kts | 265° |
| 2026-05-04 11:52 | -36.06506 | 146.97322 | 631 ft | 81 kts | 264° |
| 2026-05-04 11:52 | -36.06582 | 146.96673 | 544 ft | 71 kts | 262° |
| 2026-05-04 11:53 | -36.06635 | 146.96245 | 549 ft | 37 kts | 261° |
| 2026-05-04 11:53 | -36.06683 | 146.96084 | 548 ft | 8 kts | 178° |
| 2026-05-04 11:53 | -36.06735 | 146.96099 | 546 ft | 8 kts | 181° |
| 2026-05-04 11:53 | -36.06771 | 146.96029 | 546 ft | 11 kts | 262° |
| 2026-05-04 11:55 | -36.06828 | 146.95547 | 550 ft | 8 kts | 262° |
| 2026-05-04 11:55 | -36.06836 | 146.95475 | 550 ft | 8 kts | 262° |
| 2026-05-04 11:56 | -36.06844 | 146.95403 | 550 ft | 8 kts | 261° |
| 2026-05-04 11:56 | -36.06852 | 146.95334 | 550 ft | 8 kts | 262° |
| 2026-05-04 11:56 | -36.06874 | 146.95286 | 550 ft | 7 kts | 192° |
| 2026-05-04 11:56 | -36.06930 | 146.95283 | 550 ft | 10 kts | 181° |
| 2026-05-04 11:57 | -36.06994 | 146.95280 | 549 ft | 7 kts | 183° |
| 2026-05-04 11:57 | -36.07007 | 146.95250 | 551 ft | 3 kts | 268° |
| 2026-05-04 11:57 | -36.07007 | 146.95245 | 551 ft | 0 kts | 268° |